createdAt,value
2019-04-19T00:05:09.384Z,32.70
2019-04-19T00:10:27.185Z,32.40
2019-04-19T00:15:26.561Z,32.40
2019-04-19T00:58:52.736Z,32.90
2019-04-19T01:03:55.652Z,33.10
2019-04-19T01:21:09.146Z,33.20
2019-04-19T01:49:57.605Z,33.40
2019-04-19T01:54:57.890Z,33.20
2019-04-19T01:59:57.592Z,33.50
2019-04-19T02:05:07.135Z,33.80
2019-04-19T02:10:41.915Z,34.00
2019-04-19T02:15:41.607Z,33.90
2019-04-19T02:20:45.961Z,33.80
2019-04-19T02:25:47.658Z,34.20
2019-04-19T02:31:10.829Z,34.70
2019-04-19T02:57:57.225Z,36.10
2019-04-19T03:19:24.948Z,36.10
2019-04-19T03:24:42.389Z,36.30
2019-04-19T03:29:34.834Z,36.30
2019-04-19T03:35:01.534Z,36.30
2019-04-19T03:51:26.318Z,35.80
2019-04-19T03:56:31.990Z,35.60
2019-04-19T04:01:21.439Z,35.40
2019-04-19T04:06:30.908Z,35.60
2019-04-19T04:11:50.879Z,35.70
2019-04-19T04:17:01.886Z,35.80
2019-04-19T04:22:15.080Z,35.70
2019-04-19T04:27:29.267Z,35.60
2019-04-19T04:32:40.694Z,35.60
2019-04-19T04:37:44.780Z,35.90
2019-04-19T04:42:44.352Z,36.40
2019-04-19T04:48:07.812Z,36.60
2019-04-19T04:53:06.779Z,37.00
2019-04-19T04:58:22.023Z,37.20
2019-04-19T05:03:40.037Z,37.60
2019-04-19T05:08:48.962Z,37.90
2019-04-19T05:13:51.414Z,38.10
2019-04-19T05:18:53.766Z,38.30
2019-04-19T05:24:04.990Z,38.00
2019-04-19T05:29:07.279Z,37.80
2019-04-19T05:34:20.454Z,37.60
2019-04-19T05:39:53.166Z,37.50
2019-04-19T05:45:10.980Z,37.30
2019-04-19T06:01:08.837Z,37.00
2019-04-19T06:06:29.599Z,37.20
2019-04-19T06:11:10.441Z,37.10
2019-04-19T06:16:32.726Z,37.20
2019-04-19T06:21:36.715Z,37.10
2019-04-19T06:31:57.753Z,36.90
2019-04-19T06:36:55.881Z,37.10
2019-04-19T06:41:56.921Z,37.20
2019-04-19T06:47:06.086Z,37.30
2019-04-19T06:52:09.551Z,37.50
2019-04-19T06:57:20.251Z,37.90
2019-04-19T07:02:16.891Z,37.70
2019-04-19T07:07:43.896Z,37.70
2019-04-19T07:12:46.882Z,37.60
2019-04-19T07:17:51.255Z,37.60
2019-04-19T07:22:58.816Z,37.60
2019-04-19T07:27:59.800Z,37.40
2019-04-19T07:33:04.808Z,37.70
2019-04-19T07:38:43.076Z,37.70
2019-04-19T07:43:28.873Z,38.00
2019-04-19T07:48:27.871Z,38.00
2019-04-19T07:53:40.265Z,38.00
2019-04-19T07:59:02.511Z,38.20
2019-04-19T08:09:22.388Z,38.60
2019-04-19T08:14:38.326Z,38.60
2019-04-19T08:29:36.432Z,39.00
2019-04-19T08:34:32.884Z,38.40
2019-04-19T08:39:56.817Z,39.30
2019-04-19T08:44:54.668Z,39.10
2019-04-19T08:50:15.296Z,40.00
2019-04-19T08:55:40.673Z,39.20
2019-04-19T09:01:03.587Z,39.10
2019-04-19T09:06:10.780Z,38.90
2019-04-19T09:33:42.361Z,38.80
2019-04-19T09:44:55.009Z,37.80
2019-04-19T09:50:06.664Z,37.90
2019-04-19T09:55:26.896Z,37.40
2019-04-19T10:00:20.242Z,35.30
2019-04-19T10:05:23.918Z,34.80
2019-04-19T10:10:29.274Z,34.40
2019-04-19T10:15:41.055Z,36.20
2019-04-19T10:21:10.804Z,34.00
2019-04-19T10:26:22.258Z,35.10
2019-04-19T10:31:40.030Z,33.20
2019-04-19T10:36:47.734Z,31.90
2019-04-19T11:03:59.104Z,29.70
2019-04-19T11:36:33.681Z,27.40
2019-04-19T11:41:38.962Z,27.10
2019-04-19T11:46:45.778Z,27.30
2019-04-19T11:51:51.294Z,26.30
2019-04-19T11:57:07.449Z,26.90
2019-04-19T12:02:16.194Z,26.10
2019-04-19T12:07:21.374Z,24.60
2019-04-19T12:12:27.575Z,27.40
2019-04-19T12:17:33.435Z,25.40
2019-04-19T12:22:38.247Z,25.00
2019-04-19T12:27:46.349Z,25.40
2019-04-19T12:32:55.516Z,25.50
2019-04-19T12:38:01.995Z,26.00
2019-04-19T12:43:07.824Z,25.70
2019-04-19T12:48:13.989Z,26.40
2019-04-19T12:53:19.528Z,26.10
2019-04-19T12:58:26.007Z,25.20
2019-04-19T13:03:50.372Z,24.60
2019-04-19T13:08:57.133Z,24.20
2019-04-19T13:14:03.738Z,23.80
2019-04-19T13:19:10.102Z,25.30
2019-04-19T13:24:16.259Z,24.00
2019-04-19T13:29:21.595Z,23.40
2019-04-19T13:34:27.513Z,24.40
2019-04-19T13:39:58.397Z,23.80
2019-04-19T13:45:14.048Z,24.20
2019-04-19T13:50:22.150Z,23.40
2019-04-19T13:55:18.900Z,24.30
2019-04-19T14:00:40.586Z,24.10
2019-04-19T14:05:46.388Z,24.00
2019-04-19T14:10:52.962Z,22.90
2019-04-19T14:15:58.820Z,23.30
2019-04-19T14:21:04.129Z,23.10
2019-04-19T14:26:09.799Z,23.70
2019-04-19T14:31:16.503Z,23.70
2019-04-19T14:36:22.627Z,23.00
2019-04-19T14:41:29.515Z,23.60
2019-04-19T14:46:34.817Z,23.50
2019-04-19T14:51:42.365Z,23.80
2019-04-19T14:56:47.825Z,23.20
2019-04-19T15:02:13.124Z,23.90
2019-04-19T15:07:19.069Z,23.50
2019-04-19T15:12:24.813Z,23.60
2019-04-19T15:17:31.050Z,23.70
2019-04-19T15:22:38.075Z,23.70
2019-04-19T15:27:44.360Z,23.40
2019-04-19T15:32:50.602Z,23.40
2019-04-19T15:37:58.043Z,23.80
2019-04-19T15:43:05.237Z,23.70
2019-04-19T15:48:11.039Z,24.00
2019-04-19T15:53:18.152Z,23.80
2019-04-19T15:58:24.597Z,23.20
2019-04-19T16:03:49.993Z,22.70
2019-04-19T16:09:10.956Z,23.70
2019-04-19T16:14:17.613Z,23.80
2019-04-19T16:19:26.039Z,23.90
2019-04-19T16:24:31.747Z,24.10
2019-04-19T16:29:43.253Z,24.50
2019-04-19T16:34:45.221Z,24.70
2019-04-19T16:39:51.849Z,24.60
2019-04-19T16:44:57.294Z,25.20
2019-04-19T16:50:02.887Z,25.40
2019-04-19T16:55:09.417Z,25.20
2019-04-19T17:00:14.856Z,25.00
2019-04-19T17:05:20.632Z,24.80
2019-04-19T17:10:26.793Z,25.10
2019-04-19T17:15:54.891Z,25.00
2019-04-19T17:21:03.718Z,25.30
2019-04-19T17:26:10.830Z,25.20
2019-04-19T17:31:16.461Z,25.70
2019-04-19T17:36:22.015Z,25.60
2019-04-19T17:41:28.157Z,25.70
2019-04-19T17:46:33.438Z,25.80
2019-04-19T17:51:39.846Z,25.80
2019-04-19T17:56:45.318Z,26.40
2019-04-19T18:01:51.217Z,26.20
2019-04-19T18:07:00.959Z,26.80
2019-04-19T18:12:05.258Z,26.80
2019-04-19T18:17:10.633Z,27.50
2019-04-19T18:22:31.120Z,27.80
2019-04-19T18:27:26.204Z,29.50
2019-04-19T18:32:44.734Z,30.70
2019-04-19T18:37:49.281Z,31.50
2019-04-19T18:43:09.709Z,31.90
2019-04-19T18:48:01.660Z,32.40
2019-04-19T18:53:19.182Z,32.60
2019-04-19T18:58:21.323Z,33.00
2019-04-19T19:03:22.117Z,33.80
2019-04-19T19:08:31.135Z,33.90
2019-04-19T19:13:37.276Z,34.00
2019-04-19T19:18:50.208Z,34.00
2019-04-19T19:24:15.100Z,34.30
2019-04-19T19:29:00.186Z,34.60
2019-04-19T19:34:05.733Z,34.70
2019-04-19T19:39:18.336Z,34.90
2019-04-19T19:44:37.442Z,34.90
2019-04-19T19:49:48.997Z,35.00
2019-04-19T19:54:58.996Z,35.00
2019-04-19T19:59:43.569Z,35.50
2019-04-19T20:04:47.615Z,35.10
2019-04-19T20:09:56.544Z,35.20
2019-04-19T20:15:01.596Z,35.30
2019-04-19T20:20:07.937Z,35.60
2019-04-19T20:47:31.113Z,35.60
2019-04-19T20:52:47.761Z,35.60
2019-04-19T20:58:01.035Z,35.60
2019-04-19T23:46:58.703Z,38.70
